Time;durP1;ratioP1;P1;durP2;ratioP2;P2;SDS_P1;SDS_P2;PMS_P1;PMS_P2;Temp;Humidity;BMP_temperature;BMP_pressure;BME280_temperature;BME280_humidity;BME280_pressure;Samples;Min_cycle;Max_cycle;Signal;HPM_P1;HPM_P2
2021/12/11 00:02:03;;;;;;;;;;;;;;;4.11;90.51;98697.38;6187961;23;19915;-77
2021/12/11 00:04:31;;;;;;;;;;;;;;;4.07;90.65;98710.00;6187353;23;19912;-77
2021/12/11 00:06:57;;;;;;;;;;;;;;;4.08;90.71;98706.41;6187182;23;19904;-79
2021/12/11 00:09:27;;;;;;;;;;;;;;;4.05;90.44;98706.66;6187260;23;19932;-79
2021/12/11 00:11:54;;;;;;;;;;;;;;;4.04;90.59;98704.97;6187105;23;19915;-78
2021/12/11 00:14:19;;;;;;;;;;;;;;;4.04;90.62;98718.19;6187273;23;19919;-78
2021/12/11 00:16:44;;;;;;;;;;;;;;;4.07;90.64;98717.94;6163871;23;19912;-79
2021/12/11 00:19:16;;;;;;;;;;;;;;;4.07;90.46;98733.81;6162695;23;19909;-78
2021/12/11 00:21:42;;;;;;;;;;;;;;;4.11;90.54;98737.03;6162797;23;19908;-77
2021/12/11 00:24:11;;;;;;;;;;;;;;;4.12;90.46;98746.66;6137977;23;20384;-79
2021/12/11 00:26:39;;;;;;;;;;;;;;;4.11;90.41;98747.63;6138254;23;19909;-76
2021/12/11 00:29:05;;;;;;;;;;;;;;;4.09;90.45;98754.84;6163041;23;19909;-78
2021/12/11 00:31:31;;;;;;;;;;;;;;;4.10;90.63;98764.47;6163185;23;19915;-77
2021/12/11 00:33:56;;;;;;;;;;;;;;;4.11;90.67;98759.03;6162846;23;19975;-77
2021/12/11 00:36:22;;;;;;;;;;;;;;;4.08;90.60;98771.69;6138095;23;19908;-77
2021/12/11 00:38:49;;;;;;;;;;;;;;;3.97;90.47;98772.56;6162708;23;19909;-79
2021/12/11 00:41:15;;;;;;;;;;;;;;;3.90;90.53;98783.78;6162530;23;19908;-77
2021/12/11 00:43:41;;;;;;;;;;;;;;;3.89;90.46;98776.81;6162530;23;19955;-79
2021/12/11 00:46:08;;;;;;;;;;;;;;;3.92;91.02;98787.97;6164398;23;20193;-79
2021/12/11 00:48:33;;;;;;;;;;;;;;;3.97;90.80;98788.44;6162584;23;19915;-78
2021/12/11 00:51:00;;;;;;;;;;;;;;;3.88;90.74;98798.94;6164481;23;20011;-78
2021/12/11 00:53:27;;;;;;;;;;;;;;;3.83;90.77;98798.47;6162167;23;19916;-78
2021/12/11 00:55:55;;;;;;;;;;;;;;;3.88;90.90;98802.41;6164498;23;19912;-78
2021/12/11 00:58:20;;;;;;;;;;;;;;;3.90;90.85;98807.56;6137908;23;19928;-77
2021/12/11 01:01:00;;;;;;;;;;;;;;;3.91;91.04;98810.09;6164354;23;19908;-77
2021/12/11 01:03:27;;;;;;;;;;;;;;;3.96;91.05;98817.66;6137673;23;19913;-78
2021/12/11 01:05:53;;;;;;;;;;;;;;;3.90;90.79;98829.56;6162906;23;19915;-78
2021/12/11 01:08:23;;;;;;;;;;;;;;;3.90;90.96;98832.22;6137773;23;19928;-79
2021/12/11 01:10:49;;;;;;;;;;;;;;;3.95;91.10;98843.25;6163157;23;19904;-79
2021/12/11 01:13:18;;;;;;;;;;;;;;;3.92;91.02;98840.88;6162564;23;19908;-78
2021/12/11 01:15:49;;;;;;;;;;;;;;;3.96;90.92;98850.22;6168165;23;19970;-79
2021/12/11 01:20:50;;;;;;;;;;;;;;;4.00;90.87;98859.59;6187450;23;19920;-79
2021/12/11 01:23:34;;;;;;;;;;;;;;;3.99;91.04;98860.56;6164255;23;19924;-78
2021/12/11 01:25:59;;;;;;;;;;;;;;;4.03;91.01;98867.28;6183922;23;19912;-78
2021/12/11 01:28:25;;;;;;;;;;;;;;;4.03;91.02;98877.88;6162029;23;19905;-79
2021/12/11 01:30:50;;;;;;;;;;;;;;;4.01;91.07;98887.72;6163331;23;19908;-77
2021/12/11 01:33:15;;;;;;;;;;;;;;;4.01;90.96;98893.00;6166033;23;19908;-79
2021/12/11 01:35:40;;;;;;;;;;;;;;;3.99;91.21;98902.03;6164601;23;19923;-79
2021/12/11 01:38:08;;;;;;;;;;;;;;;4.00;91.23;98909.00;6189474;23;19928;-78
2021/12/11 01:40:33;;;;;;;;;;;;;;;4.02;91.13;98907.09;6189547;23;19948;-77
2021/12/11 01:42:59;;;;;;;;;;;;;;;4.00;91.11;98916.94;6189120;23;19913;-77
2021/12/11 01:45:24;;;;;;;;;;;;;;;4.01;91.33;98924.75;6189151;23;19904;-78
2021/12/11 01:47:50;;;;;;;;;;;;;;;4.03;91.21;98925.47;6164596;23;19904;-79
2021/12/11 01:50:20;;;;;;;;;;;;;;;4.03;91.28;98924.63;6164701;23;19920;-78
2021/12/11 01:52:48;;;;;;;;;;;;;;;4.07;91.31;98932.19;6189407;23;20003;-79
2021/12/11 01:55:36;;;;;;;;;;;;;;;4.05;91.49;98939.41;6189033;23;19912;-78
2021/12/11 01:58:01;;;;;;;;;;;;;;;4.05;91.43;98950.00;6164816;23;19912;-80
2021/12/11 02:00:31;;;;;;;;;;;;;;;4.02;91.37;98954.69;6188312;23;19940;-78
2021/12/11 02:03:00;;;;;;;;;;;;;;;4.04;91.31;98956.25;6164027;23;19935;-79
2021/12/11 02:05:27;;;;;;;;;;;;;;;4.04;91.38;98958.88;6165329;23;19908;-78
2021/12/11 02:07:54;;;;;;;;;;;;;;;4.05;91.29;98963.22;6165935;23;20661;-77
2021/12/11 02:10:21;;;;;;;;;;;;;;;4.09;91.26;98964.66;6188859;23;19912;-79
2021/12/11 02:12:47;;;;;;;;;;;;;;;4.11;91.43;98975.97;6164066;23;19971;-79
2021/12/11 02:15:24;;;;;;;;;;;;;;;4.14;91.38;98974.88;6188396;23;19912;-79
2021/12/11 02:18:08;;;;;;;;;;;;;;;4.18;91.42;98981.59;6188223;23;20657;-78
2021/12/11 02:20:37;;;;;;;;;;;;;;;4.16;90.86;98985.34;6164192;23;19905;-78
2021/12/11 02:23:02;;;;;;;;;;;;;;;4.14;90.83;98984.63;6164828;23;19936;-79
2021/12/11 02:25:29;;;;;;;;;;;;;;;4.13;91.16;98986.41;6188606;23;19908;-79
2021/12/11 02:27:55;;;;;;;;;;;;;;;4.21;91.24;98993.75;6188981;23;19909;-77
2021/12/11 02:30:32;;;;;;;;;;;;;;;4.18;91.17;99007.22;6188831;23;19911;-77
2021/12/11 02:33:06;;;;;;;;;;;;;;;4.18;90.83;99008.06;6163921;23;19932;-78
2021/12/11 02:35:33;;;;;;;;;;;;;;;4.14;90.95;99014.56;6164784;23;19909;-78
2021/12/11 02:38:06;;;;;;;;;;;;;;;4.14;90.85;99021.66;6163573;23;19986;-79
2021/12/11 02:40:34;;;;;;;;;;;;;;;4.13;90.51;99020.81;6164850;23;20349;-79
2021/12/11 02:43:05;;;;;;;;;;;;;;;4.15;90.82;99028.63;6188556;23;19908;-77
2021/12/11 02:45:33;;;;;;;;;;;;;;;4.14;90.73;99021.66;6188252;23;19904;-78
2021/12/11 02:48:28;;;;;;;;;;;;;;;4.06;90.62;99020.44;6188525;23;19916;-77
2021/12/11 02:51:23;;;;;;;;;;;;;;;4.09;90.72;99035.25;6164129;23;19908;-78
2021/12/11 02:53:53;;;;;;;;;;;;;;;4.02;90.66;99026.09;6156217;23;19963;-78
2021/12/11 02:56:24;;;;;;;;;;;;;;;3.96;90.47;99027.44;6188500;23;19985;-79
2021/12/11 02:58:56;;;;;;;;;;;;;;;3.96;90.68;99032.72;6165074;23;19920;-77
2021/12/11 03:01:24;;;;;;;;;;;;;;;3.97;90.44;99041.50;6188032;23;19911;-79
2021/12/11 03:03:56;;;;;;;;;;;;;;;3.99;90.46;99043.06;6165159;23;19912;-79
2021/12/11 03:06:24;;;;;;;;;;;;;;;4.03;90.57;99044.50;6187473;23;19904;-78
2021/12/11 03:08:51;;;;;;;;;;;;;;;4.04;90.61;99046.19;6188183;23;19909;-76
2021/12/11 03:11:17;;;;;;;;;;;;;;;4.06;90.58;99044.25;6188631;23;19915;-79
2021/12/11 03:13:49;;;;;;;;;;;;;;;4.11;90.48;99054.47;6188601;23;19905;-79
2021/12/11 03:16:15;;;;;;;;;;;;;;;4.10;90.59;99063.38;6163474;23;19912;-78
2021/12/11 03:18:41;;;;;;;;;;;;;;;4.09;90.33;99072.28;6163528;23;19920;-78
2021/12/11 03:21:06;;;;;;;;;;;;;;;4.14;90.20;99075.41;6188547;23;19955;-79
2021/12/11 03:23:31;;;;;;;;;;;;;;;4.09;90.65;99083.69;6163717;23;19909;-77
2021/12/11 03:25:56;;;;;;;;;;;;;;;4.06;90.10;99089.22;6188728;23;20074;-78
2021/12/11 03:28:22;;;;;;;;;;;;;;;4.08;89.70;99081.16;6163328;23;19908;-78
2021/12/11 03:30:52;;;;;;;;;;;;;;;4.07;90.00;99092.72;6188468;23;19915;-79
2021/12/11 03:33:18;;;;;;;;;;;;;;;4.07;89.80;99101.50;6187619;23;19909;-78
2021/12/11 03:35:44;;;;;;;;;;;;;;;4.09;89.83;99102.22;6188170;23;19910;-78
2021/12/11 03:38:09;;;;;;;;;;;;;;;4.09;89.67;99107.50;6188503;23;19992;-78
2021/12/11 03:40:35;;;;;;;;;;;;;;;4.07;90.09;99103.28;6163343;23;19909;-77
2021/12/11 03:43:01;;;;;;;;;;;;;;;4.07;89.88;99109.44;6188403;23;19904;-78
2021/12/11 03:45:28;;;;;;;;;;;;;;;4.09;89.85;99110.16;6163193;23;19908;-79
2021/12/11 03:47:56;;;;;;;;;;;;;;;4.08;89.95;99120.84;6188358;23;19927;-77
2021/12/11 03:50:21;;;;;;;;;;;;;;;4.10;89.76;99121.56;6187767;23;19908;-79
2021/12/11 03:52:47;;;;;;;;;;;;;;;4.09;89.71;99125.19;6187321;23;19908;-79
2021/12/11 03:55:13;;;;;;;;;;;;;;;4.07;90.10;99138.53;6162590;23;19909;-77
2021/12/11 03:57:41;;;;;;;;;;;;;;;4.10;89.92;99133.00;6164755;23;19913;-79
2021/12/11 04:00:09;;;;;;;;;;;;;;;4.10;89.91;99129.50;6187800;23;19916;-78
2021/12/11 04:02:34;;;;;;;;;;;;;;;4.06;89.87;99138.63;6187854;23;19917;-77
2021/12/11 04:05:00;;;;;;;;;;;;;;;4.08;90.18;99140.22;6187810;23;20003;-78
2021/12/11 04:07:30;;;;;;;;;;;;;;;4.03;90.20;99142.38;6163205;23;20291;-78
2021/12/11 04:09:55;;;;;;;;;;;;;;;4.00;89.94;99142.59;6188100;23;19965;-78
2021/12/11 04:12:21;;;;;;;;;;;;;;;4.00;89.96;99149.69;6187967;23;19909;-78
2021/12/11 04:14:49;;;;;;;;;;;;;;;3.98;90.33;99152.44;6162948;23;19908;-79
2021/12/11 04:17:18;;;;;;;;;;;;;;;3.95;90.08;99150.03;6187959;23;19909;-78
2021/12/11 04:19:43;;;;;;;;;;;;;;;4.01;90.22;99161.94;6187337;23;19963;-77
2021/12/11 04:22:08;;;;;;;;;;;;;;;4.06;90.22;99173.03;6163353;23;19909;-77
2021/12/11 04:24:34;;;;;;;;;;;;;;;4.09;89.99;99178.09;6163881;23;19913;-77
2021/12/11 04:27:00;;;;;;;;;;;;;;;4.06;90.31;99179.16;6188258;23;19991;-77
2021/12/11 04:29:25;;;;;;;;;;;;;;;4.05;90.37;99182.75;6162730;23;20283;-78
2021/12/11 04:31:51;;;;;;;;;;;;;;;4.06;90.45;99189.75;6162734;23;19916;-78
2021/12/11 04:34:17;;;;;;;;;;;;;;;4.06;90.22;99189.75;6187577;23;19905;-79
2021/12/11 04:36:52;;;;;;;;;;;;;;;4.05;90.40;99188.06;6164666;23;19908;-78
2021/12/11 04:39:19;;;;;;;;;;;;;;;4.04;90.32;99188.16;6187564;23;19908;-78
2021/12/11 04:41:55;;;;;;;;;;;;;;;4.07;90.31;99186.13;6164031;23;19908;-78
2021/12/11 04:44:23;;;;;;;;;;;;;;;4.06;90.30;99188.91;6162158;23;19924;-78
2021/12/11 04:46:48;;;;;;;;;;;;;;;4.01;90.39;99191.88;6187498;23;19915;-78
2021/12/11 04:49:23;;;;;;;;;;;;;;;4.02;90.18;99193.56;6187823;23;19979;-78
2021/12/11 04:52:00;;;;;;;;;;;;;;;4.01;90.56;99202.47;6162705;23;19919;-77
2021/12/11 04:54:50;;;;;;;;;;;;;;;4.00;90.70;99198.13;6162361;23;19928;-77
2021/12/11 05:00:18;;;;;;;;;;;;;;;4.01;90.56;99205.13;6164315;23;19924;-78
2021/12/11 05:10:55;;;;;;;;;;;;;;;4.02;90.53;99224.47;6184106;23;19947;-78
2021/12/11 05:13:21;;;;;;;;;;;;;;;4.03;90.88;99223.53;6162429;23;19927;-78
2021/12/11 05:15:48;;;;;;;;;;;;;;;4.03;90.83;99227.00;6187002;23;19956;-79
2021/12/11 05:18:14;;;;;;;;;;;;;;;4.04;90.54;99231.34;6187582;23;19931;-78
2021/12/11 05:20:40;;;;;;;;;;;;;;;4.04;90.68;99225.22;6187375;23;19908;-79
2021/12/11 05:23:05;;;;;;;;;;;;;;;4.03;90.71;99232.28;6187546;23;19905;-77
2021/12/11 05:25:30;;;;;;;;;;;;;;;4.04;90.74;99239.28;6164131;23;19939;-79
2021/12/11 05:27:56;;;;;;;;;;;;;;;4.05;90.64;99250.69;6187358;23;19904;-77
2021/12/11 05:30:23;;;;;;;;;;;;;;;4.06;90.48;99255.88;6187346;23;19916;-79
2021/12/11 05:32:49;;;;;;;;;;;;;;;4.05;90.55;99256.84;6162237;23;19927;-79
2021/12/11 05:35:14;;;;;;;;;;;;;;;4.08;90.78;99259.25;6186612;23;19908;-79
2021/12/11 05:37:40;;;;;;;;;;;;;;;4.07;90.69;99272.59;6187550;23;19932;-79
2021/12/11 05:40:13;;;;;;;;;;;;;;;4.06;90.72;99273.53;6187312;23;20368;-78
2021/12/11 05:42:38;;;;;;;;;;;;;;;4.04;90.82;99271.00;6162552;23;20570;-78
2021/12/11 05:45:06;;;;;;;;;;;;;;;4.05;91.01;99283.28;6163645;23;19904;-77
2021/12/11 05:47:32;;;;;;;;;;;;;;;4.03;91.02;99289.66;6187363;23;19909;-78
2021/12/11 05:49:58;;;;;;;;;;;;;;;4.04;91.04;99286.03;6162406;23;19919;-78
2021/12/11 05:52:23;;;;;;;;;;;;;;;4.05;90.83;99285.94;6187110;23;20012;-79
2021/12/11 05:54:50;;;;;;;;;;;;;;;4.06;90.80;99289.41;6187067;23;19991;-79
2021/12/11 05:57:16;;;;;;;;;;;;;;;4.03;90.98;99290.50;6187414;23;19912;-78
2021/12/11 05:59:42;;;;;;;;;;;;;;;4.05;90.83;99293.88;6164219;23;19908;-78
2021/12/11 06:02:10;;;;;;;;;;;;;;;4.07;91.21;99299.03;6162576;23;19908;-77
2021/12/11 06:04:35;;;;;;;;;;;;;;;4.07;91.17;99307.81;6163741;23;19988;-79
2021/12/11 06:07:01;;;;;;;;;;;;;;;4.09;91.00;99305.91;6162437;23;19937;-78
2021/12/11 06:09:27;;;;;;;;;;;;;;;4.09;91.05;99310.34;6187405;23;20460;-77
2021/12/11 06:11:54;;;;;;;;;;;;;;;4.11;90.94;99309.28;6187106;23;20013;-77
2021/12/11 06:14:20;;;;;;;;;;;;;;;4.12;91.06;99312.78;6162203;23;19913;-77
2021/12/11 06:16:45;;;;;;;;;;;;;;;4.10;91.16;99317.34;6162563;23;19973;-78
2021/12/11 06:19:11;;;;;;;;;;;;;;;4.09;91.09;99327.06;6189021;23;19912;-77
2021/12/11 06:21:36;;;;;;;;;;;;;;;4.11;91.45;99327.81;6188289;23;19952;-80
2021/12/11 06:24:01;;;;;;;;;;;;;;;4.17;91.27;99331.78;6188640;23;19911;-79
2021/12/11 06:26:26;;;;;;;;;;;;;;;4.16;91.16;99339.84;6163962;23;20140;-79
2021/12/11 06:28:52;;;;;;;;;;;;;;;4.15;91.29;99338.16;6189097;23;19928;-78
2021/12/11 06:31:19;;;;;;;;;;;;;;;4.11;91.18;99345.47;6163979;23;19910;-80
2021/12/11 06:33:47;;;;;;;;;;;;;;;4.12;91.29;99352.47;6188491;23;19911;-79
2021/12/11 06:36:14;;;;;;;;;;;;;;;4.13;91.09;99353.31;6188918;23;19932;-80
2021/12/11 06:38:40;;;;;;;;;;;;;;;4.15;91.26;99364.63;6188424;23;19919;-77
2021/12/11 06:41:06;;;;;;;;;;;;;;;4.12;91.34;99365.69;6188851;23;19908;-77
2021/12/11 06:43:31;;;;;;;;;;;;;;;4.11;91.30;99366.63;6188505;23;19932;-78
2021/12/11 06:45:57;;;;;;;;;;;;;;;4.14;91.02;99381.44;6164220;23;19912;-78
2021/12/11 06:48:22;;;;;;;;;;;;;;;4.11;91.21;99370.13;6165287;23;19939;-77
2021/12/11 06:50:47;;;;;;;;;;;;;;;4.12;91.59;99370.97;6188747;23;19908;-78
2021/12/11 06:53:21;;;;;;;;;;;;;;;4.15;91.67;99378.69;6188814;23;19908;-79
2021/12/11 06:55:46;;;;;;;;;;;;;;;4.14;91.64;99387.59;6188975;23;19905;-79
2021/12/11 06:58:11;;;;;;;;;;;;;;;4.18;91.37;99390.84;6188937;23;19931;-78
2021/12/11 07:00:37;;;;;;;;;;;;;;;4.17;91.45;99405.03;6165333;23;19908;-78
2021/12/11 07:03:02;;;;;;;;;;;;;;;4.20;91.63;99408.31;6188952;23;20289;-78
2021/12/11 07:05:27;;;;;;;;;;;;;;;4.17;91.77;99411.16;6163392;23;19920;-79
2021/12/11 07:07:53;;;;;;;;;;;;;;;4.13;91.48;99422.94;6188552;23;19944;-79
2021/12/11 07:10:20;;;;;;;;;;;;;;;4.16;91.56;99428.00;6188723;23;19912;-78
2021/12/11 07:12:46;;;;;;;;;;;;;;;4.15;91.66;99428.97;6188113;23;19908;-78
2021/12/11 07:15:11;;;;;;;;;;;;;;;4.19;92.04;99437.53;6164811;23;19946;-77
2021/12/11 07:17:36;;;;;;;;;;;;;;;4.20;91.90;99436.56;6138993;23;20328;-78
2021/12/11 07:20:06;;;;;;;;;;;;;;;4.18;91.68;99443.75;6138969;23;19987;-78
2021/12/11 07:22:31;;;;;;;;;;;;;;;4.24;91.84;99453.91;6163356;23;19909;-78
2021/12/11 07:24:58;;;;;;;;;;;;;;;4.23;91.64;99452.22;6163340;23;20019;-77
2021/12/11 07:27:23;;;;;;;;;;;;;;;4.28;92.25;99455.41;6163051;23;19959;-78
2021/12/11 07:29:48;;;;;;;;;;;;;;;4.28;91.67;99456.25;6164979;23;19912;-80
2021/12/11 07:32:13;;;;;;;;;;;;;;;4.34;91.60;99462.91;6163555;23;19984;-77
2021/12/11 07:34:39;;;;;;;;;;;;;;;4.30;92.03;99464.94;6164805;23;19920;-77
2021/12/11 07:37:04;;;;;;;;;;;;;;;4.26;91.57;99474.03;6162868;23;19915;-78
2021/12/11 07:39:30;;;;;;;;;;;;;;;4.24;91.79;99477.72;6138026;23;19942;-77
2021/12/11 07:41:56;;;;;;;;;;;;;;;4.25;92.10;99482.91;6162693;23;20281;-79
2021/12/11 07:44:21;;;;;;;;;;;;;;;4.28;91.79;99487.16;6163146;23;19934;-78
2021/12/11 07:46:47;;;;;;;;;;;;;;;4.27;91.84;99493.41;6162724;23;19915;-79
2021/12/11 07:49:12;;;;;;;;;;;;;;;4.21;92.13;99491.16;6138329;23;19911;-78
2021/12/11 07:51:38;;;;;;;;;;;;;;;4.20;91.91;99498.25;6163029;23;19908;-78
2021/12/11 07:54:04;;;;;;;;;;;;;;;4.26;92.21;99497.00;6162739;23;19908;-79
2021/12/11 07:56:29;;;;;;;;;;;;;;;4.27;92.01;99501.34;6137984;23;20225;-78
2021/12/11 07:58:55;;;;;;;;;;;;;;;4.25;92.05;99506.72;6163374;23;19909;-77
2021/12/11 08:01:20;;;;;;;;;;;;;;;4.30;92.36;99517.00;6163059;23;19915;-77
2021/12/11 08:03:46;;;;;;;;;;;;;;;4.23;92.35;99516.56;6162058;23;19963;-77
2021/12/11 08:06:13;;;;;;;;;;;;;;;4.25;92.18;99525.25;6137952;23;19956;-78
2021/12/11 08:08:39;;;;;;;;;;;;;;;4.28;92.26;99525.06;6162703;23;19949;-79
2021/12/11 08:11:05;;;;;;;;;;;;;;;4.26;92.21;99528.78;6163480;23;19959;-78
2021/12/11 08:13:30;;;;;;;;;;;;;;;4.25;92.50;99524.41;6137965;23;19909;-78
2021/12/11 08:15:56;;;;;;;;;;;;;;;4.31;92.31;99539.88;6171969;23;19915;-79
2021/12/11 08:18:22;;;;;;;;;;;;;;;4.32;92.45;99541.56;6187834;23;19912;-77
2021/12/11 08:20:47;;;;;;;;;;;;;;;4.29;92.42;99547.91;6164742;23;19908;-78
2021/12/11 08:23:13;;;;;;;;;;;;;;;4.27;92.66;99549.84;6187671;23;19976;-79
2021/12/11 08:25:40;;;;;;;;;;;;;;;4.29;92.68;99552.38;6164521;23;19919;-80
2021/12/11 08:28:06;;;;;;;;;;;;;;;4.27;92.54;99563.06;6188350;23;19949;-81
2021/12/11 08:30:32;;;;;;;;;;;;;;;4.29;92.63;99569.09;6188268;23;19915;-80
2021/12/11 08:32:58;;;;;;;;;;;;;;;4.30;92.55;99567.28;6188470;23;19904;-81
2021/12/11 08:35:23;;;;;;;;;;;;;;;4.31;92.87;99574.28;6188250;23;19905;-80
2021/12/11 08:37:49;;;;;;;;;;;;;;;4.35;92.81;99586.34;6188488;23;19915;-80
2021/12/11 08:40:17;;;;;;;;;;;;;;;4.35;93.05;99586.34;6188256;23;19911;-79
2021/12/11 08:42:42;;;;;;;;;;;;;;;4.38;93.18;99584.31;6165316;23;19915;-79
2021/12/11 08:45:10;;;;;;;;;;;;;;;4.46;92.89;99589.06;6187817;23;20509;-81
2021/12/11 08:47:39;;;;;;;;;;;;;;;4.48;93.26;99597.75;6163139;23;19905;-80
2021/12/11 08:50:05;;;;;;;;;;;;;;;4.50;93.19;99603.78;6187924;23;19909;-79
2021/12/11 08:52:34;;;;;;;;;;;;;;;4.50;93.42;99609.06;6163603;23;20454;-80
2021/12/11 08:55:00;;;;;;;;;;;;;;;4.51;93.44;99605.47;6162565;23;20043;-80
2021/12/11 08:57:30;;;;;;;;;;;;;;;4.52;93.54;99606.31;6188247;23;19906;-79
2021/12/11 09:00:08;;;;;;;;;;;;;;;4.54;94.01;99607.91;6164767;23;19908;-79
2021/12/11 09:02:35;;;;;;;;;;;;;;;4.56;93.71;99600.69;6186675;23;19908;-79
2021/12/11 09:05:06;;;;;;;;;;;;;;;4.58;93.91;99603.25;6164479;23;19932;-79
2021/12/11 09:07:43;;;;;;;;;;;;;;;4.59;93.88;99615.53;6188356;23;20021;-80
2021/12/11 09:10:15;;;;;;;;;;;;;;;4.61;93.97;99617.09;6188463;23;19913;-79
2021/12/11 09:12:42;;;;;;;;;;;;;;;4.67;94.47;99613.16;6164388;23;19908;-79
2021/12/11 09:15:27;;;;;;;;;;;;;;;4.64;94.03;99624.81;6162625;23;19991;-80
2021/12/11 09:17:55;;;;;;;;;;;;;;;4.66;94.68;99627.38;6138213;23;19913;-79
2021/12/11 09:20:26;;;;;;;;;;;;;;;4.66;94.75;99630.88;6163215;23;19935;-80
2021/12/11 09:22:56;;;;;;;;;;;;;;;4.67;94.49;99626.41;6138452;23;19908;-80
2021/12/11 09:25:24;;;;;;;;;;;;;;;4.73;94.91;99647.19;6164303;23;19916;-78
2021/12/11 09:27:55;;;;;;;;;;;;;;;4.77;94.60;99638.06;6164605;23;20310;-80
2021/12/11 09:30:24;;;;;;;;;;;;;;;4.78;94.92;99644.22;6138357;23;19913;-78
2021/12/11 09:32:54;;;;;;;;;;;;;;;4.78;94.85;99657.47;6163285;23;19976;-78
2021/12/11 09:35:30;;;;;;;;;;;;;;;4.82;94.52;99658.94;6162776;23;19912;-79
2021/12/11 09:37:58;;;;;;;;;;;;;;;4.84;94.70;99664.97;6138623;23;19908;-80
2021/12/11 09:40:30;;;;;;;;;;;;;;;4.90;94.60;99670.66;6137556;23;19915;-79
2021/12/11 09:42:55;;;;;;;;;;;;;;;4.87;94.84;99675.34;6164049;23;19927;-79
2021/12/11 09:45:22;;;;;;;;;;;;;;;4.85;95.19;99677.25;6138110;23;19924;-79
2021/12/11 09:47:51;;;;;;;;;;;;;;;4.84;95.08;99679.06;6163539;23;19909;-81
2021/12/11 09:50:18;;;;;;;;;;;;;;;4.84;94.92;99686.16;6163346;23;19909;-81
2021/12/11 09:52:46;;;;;;;;;;;;;;;4.87;95.28;99692.09;6139783;23;19905;-78
2021/12/11 09:55:18;;;;;;;;;;;;;;;4.88;95.20;99696.44;6165055;23;19909;-79
2021/12/11 09:57:46;;;;;;;;;;;;;;;4.87;95.23;99696.53;6166610;23;19962;-79
2021/12/11 10:00:34;;;;;;;;;;;;;;;4.87;95.05;99699.19;6165274;23;19933;-78
2021/12/11 10:03:01;;;;;;;;;;;;;;;4.89;95.46;99702.56;6136187;23;19919;-80
2021/12/11 10:05:55;;;;;;;;;;;;;;;4.92;95.39;99697.06;6164229;23;19936;-79
2021/12/11 10:11:15;;;;;;;;;;;;;;;4.96;95.29;99698.53;6164695;23;19920;-87
2021/12/11 10:13:57;;;;;;;;;;;;;;;4.93;95.43;99706.69;6160654;23;19964;-78
2021/12/11 10:16:24;;;;;;;;;;;;;;;4.95;95.75;99694.19;6177085;23;19920;-80
2021/12/11 10:18:50;;;;;;;;;;;;;;;4.97;95.86;99698.41;6187506;23;19952;-78
2021/12/11 10:21:23;;;;;;;;;;;;;;;4.99;95.45;99701.81;6162744;23;19928;-78
2021/12/11 10:23:49;;;;;;;;;;;;;;;5.00;95.60;99705.31;6187107;23;19909;-79
2021/12/11 10:26:19;;;;;;;;;;;;;;;4.98;95.98;99707.22;6162354;23;19908;-80
2021/12/11 10:28:45;;;;;;;;;;;;;;;5.03;95.89;99718.34;6187641;23;19909;-79
2021/12/11 10:31:13;;;;;;;;;;;;;;;5.01;95.67;99717.59;6187289;23;19908;-81
2021/12/11 10:33:38;;;;;;;;;;;;;;;5.02;96.36;99721.94;6186932;23;19915;-79
2021/12/11 10:36:05;;;;;;;;;;;;;;;5.07;95.78;99728.59;6187266;23;20504;-79
2021/12/11 10:38:30;;;;;;;;;;;;;;;5.06;95.92;99726.91;6186214;23;19908;-79
2021/12/11 10:40:57;;;;;;;;;;;;;;;5.02;96.36;99733.38;6187216;23;19904;-79
2021/12/11 10:43:30;;;;;;;;;;;;;;;5.04;96.46;99746.53;6161466;23;19938;-79
2021/12/11 10:45:56;;;;;;;;;;;;;;;5.02;96.37;99743.13;6187340;23;20313;-80
2021/12/11 10:48:23;;;;;;;;;;;;;;;5.04;96.01;99736.78;6161879;23;19932;-80
2021/12/11 10:50:50;;;;;;;;;;;;;;;5.05;96.16;99737.63;6186816;23;19909;-78
2021/12/11 10:53:16;;;;;;;;;;;;;;;5.04;96.46;99742.06;6186601;23;20332;-80
2021/12/11 10:55:41;;;;;;;;;;;;;;;5.02;96.00;99746.63;6162126;23;19908;-78
2021/12/11 10:58:09;;;;;;;;;;;;;;;5.05;96.00;99738.47;6187471;23;19908;-80
2021/12/11 11:00:39;;;;;;;;;;;;;;;5.09;96.42;99748.84;6186665;23;19909;-78
2021/12/11 11:03:06;;;;;;;;;;;;;;;5.06;96.16;99742.81;6186270;23;19908;-80
2021/12/11 11:05:32;;;;;;;;;;;;;;;5.07;96.12;99756.91;6186527;23;19975;-79
2021/12/11 11:07:57;;;;;;;;;;;;;;;5.02;96.52;99759.88;6187271;23;20305;-79
2021/12/11 11:10:24;;;;;;;;;;;;;;;5.07;96.24;99762.22;6186706;23;20276;-79
2021/12/11 11:12:53;;;;;;;;;;;;;;;5.07;96.18;99765.72;6161523;23;19916;-79
2021/12/11 11:15:21;;;;;;;;;;;;;;;5.07;96.56;99762.22;6185831;23;19912;-80
2021/12/11 11:17:46;;;;;;;;;;;;;;;5.10;96.34;99756.69;6185962;23;19904;-79
2021/12/11 11:20:13;;;;;;;;;;;;;;;5.11;96.11;99779.59;6186635;23;19950;-79
2021/12/11 11:22:39;;;;;;;;;;;;;;;5.11;96.05;99776.09;6186261;23;19916;-80
2021/12/11 11:25:09;;;;;;;;;;;;;;;5.11;96.15;99776.94;6186310;23;19908;-80
2021/12/11 11:27:35;;;;;;;;;;;;;;;5.11;96.73;99790.19;6186200;23;19959;-79
2021/12/11 11:30:01;;;;;;;;;;;;;;;5.10;96.20;99788.50;6161669;23;19928;-78
2021/12/11 11:32:31;;;;;;;;;;;;;;;5.10;96.63;99793.78;6186041;23;19963;-78
2021/12/11 11:35:06;;;;;;;;;;;;;;;5.12;96.21;99799.84;6161142;23;19924;-80
2021/12/11 11:37:34;;;;;;;;;;;;;;;5.10;96.85;99801.75;6160655;23;19909;-78
2021/12/11 11:39:59;;;;;;;;;;;;;;;5.11;96.76;99805.25;6161481;23;19960;-78
2021/12/11 11:42:24;;;;;;;;;;;;;;;5.13;96.75;99809.47;6186145;23;20569;-79
2021/12/11 11:44:49;;;;;;;;;;;;;;;5.11;96.80;99816.69;6186492;23;19915;-78
2021/12/11 11:47:16;;;;;;;;;;;;;;;5.13;96.43;99821.88;6186518;23;20444;-80
2021/12/11 11:49:41;;;;;;;;;;;;;;;5.15;96.92;99819.97;6159003;23;19929;-78
2021/12/11 11:52:08;;;;;;;;;;;;;;;5.15;96.60;99820.81;6158441;23;19932;-79
2021/12/11 11:54:34;;;;;;;;;;;;;;;5.16;96.67;99822.50;6158581;23;19928;-78
2021/12/11 11:57:07;;;;;;;;;;;;;;;5.16;96.73;99816.38;6184062;23;19912;-79
2021/12/11 11:59:34;;;;;;;;;;;;;;;5.15;96.41;99831.41;6182337;23;19904;-79
2021/12/11 12:02:03;;;;;;;;;;;;;;;5.16;96.47;99833.13;6184347;23;19915;-80
2021/12/11 12:04:28;;;;;;;;;;;;;;;5.15;96.42;99834.06;6158079;23;19908;-79
2021/12/11 12:06:58;;;;;;;;;;;;;;;5.14;96.70;99840.31;6158423;23;19904;-81
2021/12/11 12:09:24;;;;;;;;;;;;;;;5.17;96.99;99845.41;6159203;23;19944;-77
2021/12/11 12:11:49;;;;;;;;;;;;;;;5.18;96.49;99855.06;6157390;23;19979;-80
2021/12/11 12:14:19;;;;;;;;;;;;;;;5.19;96.88;99856.75;6183717;23;19905;-78
2021/12/11 12:16:45;;;;;;;;;;;;;;;5.21;96.86;99859.34;6185125;23;19919;-78
2021/12/11 12:19:11;;;;;;;;;;;;;;;5.19;96.63;99864.72;6159028;23;19917;-79
2021/12/11 12:21:37;;;;;;;;;;;;;;;5.18;96.31;99872.75;6159216;23;19912;-77
2021/12/11 12:24:02;;;;;;;;;;;;;;;5.18;96.66;99876.25;6184292;23;19905;-79
2021/12/11 12:26:28;;;;;;;;;;;;;;;5.18;96.36;99884.22;6161673;23;19904;-78
2021/12/11 12:28:54;;;;;;;;;;;;;;;5.22;96.41;99880.44;6184259;23;19908;-77
2021/12/11 12:31:24;;;;;;;;;;;;;;;5.24;96.34;99885.63;6184231;23;19913;-77
2021/12/11 12:33:49;;;;;;;;;;;;;;;5.23;96.42;99878.63;6184835;23;19916;-77
2021/12/11 12:36:15;;;;;;;;;;;;;;;5.26;96.48;99881.91;6160466;23;19909;-80
2021/12/11 12:38:42;;;;;;;;;;;;;;;5.26;96.37;99889.03;6185444;23;19908;-82
2021/12/11 12:41:07;;;;;;;;;;;;;;;5.23;96.46;99886.56;6185916;23;19955;-81
2021/12/11 12:44:16;;;;;;;;;;;;;;;5.22;96.56;99890.19;6160272;23;19905;-81
2021/12/11 12:46:40;;;;;;;;;;;;;;;5.24;96.46;99888.28;6177396;23;19920;-81
2021/12/11 12:49:23;;;;;;;;;;;;;;;5.26;96.79;99895.16;6160028;23;19904;-83
2021/12/11 12:51:49;;;;;;;;;;;;;;;5.24;96.50;99899.72;6159902;23;19929;-82
2021/12/11 12:54:15;;;;;;;;;;;;;;;5.22;96.39;99898.13;6159270;23;19932;-82
2021/12/11 12:56:43;;;;;;;;;;;;;;;5.22;96.61;99896.34;6159350;23;19908;-82
2021/12/11 12:59:12;;;;;;;;;;;;;;;5.22;96.56;99901.63;6159834;23;20536;-82
2021/12/11 13:01:48;;;;;;;;;;;;;;;5.23;96.67;99903.34;6160982;23;19925;-82
2021/12/11 13:04:14;;;;;;;;;;;;;;;5.23;96.74;99905.97;6161565;23;19905;-81
2021/12/11 13:06:41;;;;;;;;;;;;;;;5.22;97.17;99912.25;6160675;23;19956;-82
2021/12/11 13:09:14;;;;;;;;;;;;;;;5.21;96.80;99913.19;6186462;23;20560;-81
2021/12/11 13:11:50;;;;;;;;;;;;;;;5.22;96.81;99919.34;6185685;23;19971;-81
2021/12/11 13:14:16;;;;;;;;;;;;;;;5.21;97.03;99915.84;6161331;23;19916;-82
2021/12/11 13:16:42;;;;;;;;;;;;;;;5.23;96.88;99913.94;6160531;23;19912;-81
2021/12/11 13:19:09;;;;;;;;;;;;;;;5.24;97.12;99918.28;6161543;23;19963;-80